Flight Track Log - Related Links

Times and Time Zones

All times are in EDT time to prevent confusion due to time zone crossing. See the N87CA flight status page for this flight to view local times or setup timezone preferences in your user account.

Time Position Orientation Groundspeed Altitude Reporting Facility
EDT Latitude Longitude Course Direction KTS MPH feet Rate Location/Type
Sat 03:11:24 PM 34.0500 -84.5667 102° East 152 175 4,000  Level Atlanta TRACON
Sat 03:12:24 PM 34.0500 -84.5167 90° East 160 184 5,400 1,300 Climbing Atlanta TRACON
Sat 03:13:24 PM 34.0667 -84.4667 68° East 145 167 6,600 850 Climbing Atlanta TRACON
Sat 03:14:24 PM 34.0833 -84.4167 68° East 171 197 7,100 188 Climbing Atlanta TRACON
Sat 03:15:32 PM 34.0944 -84.3472 79° East 199 229 7,000 -47 Descending Atlanta Center
Sat 03:16:00 PM 34.1468 -84.2477 102° East  Level Estimated
Sat 03:16:32 PM 34.1072 -84.2797 77° East 209 241 7,000  Level Atlanta Center
Sat 03:17:32 PM 34.1239 -84.2144 73° East 229 264 7,000 -50 Level Atlanta Center
Sat 03:18:32 PM 34.1364 -84.1392 79° East 217 250 6,900 -50 Descending Atlanta Center
Sat 03:19:32 PM 34.1511 -84.0714 75° East 212 244 6,900 50 Level Atlanta Center
Sat 03:20:32 PM 34.1678 -84.0011 74° East 212 244 7,000 50 Climbing Atlanta Center
Sat 03:21:32 PM 34.1803 -83.9333 77° East 202 232 7,000  Level Atlanta Center
Sat 03:22:32 PM 34.1969 -83.8681 73° East 202 232 7,000  Level Atlanta Center
Sat 03:23:32 PM 34.2094 -83.7950 78° East 207 238 7,000 -50 Level Atlanta Center
Sat 03:24:32 PM 34.2342 -83.7347 64° Northeast 201 231 6,900 -50 Descending Atlanta Center
Sat 03:25:32 PM 34.2633 -83.6744 60° Northeast 201 231 6,900  Level Atlanta Center
Sat 03:26:32 PM 34.2922 -83.6114 61° Northeast 208 239 6,900 50 Level Atlanta Center
Sat 03:27:32 PM 34.3150 -83.5583 63° Northeast 208 239 7,000  Climbing Atlanta Center
Sat 03:28:32 PM 34.3442 -83.4928 62° Northeast 203 234 6,900 -50 Descending Atlanta Center
Sat 03:29:32 PM 34.3708 -83.4322 62° Northeast 203 234 6,900  Level Atlanta Center
Sat 03:30:32 PM 34.3978 -83.3717 62° Northeast 203 234 6,900  Level Atlanta Center
Sat 03:31:32 PM 34.4244 -83.3086 63° Northeast 203 234 6,900 50 Level Atlanta Center
Sat 03:32:32 PM 34.4511 -83.2478 62° Northeast 203 234 7,000 50 Climbing Atlanta Center
Sat 03:33:32 PM 34.4819 -83.1819 60° Northeast 203 234 7,000  Level Atlanta Center
Sat 03:34:32 PM 34.5067 -83.1211 64° Northeast 203 234 7,000 -50 Level Atlanta Center
Sat 03:35:32 PM 34.5375 -83.0578 59° Northeast 208 239 6,900 -50 Descending Atlanta Center
Sat 03:36:32 PM 34.5642 -82.9944 63° Northeast 203 234 6,900 50 Level Atlanta Center
Sat 03:37:32 PM 34.5928 -82.9311 61° Northeast 203 234 7,000  Climbing Atlanta Center
Sat 03:38:32 PM 34.6194 -82.8703 62° Northeast 203 234 6,900 -50 Descending Atlanta Center
Sat 03:39:32 PM 34.6458 -82.8067 63° Northeast 203 234 6,900 -400 Level Atlanta Center
Sat 03:40:32 PM 34.6514 -82.7358 85° East 203 234 6,100 -800 Descending Atlanta Center
Sat 03:41:32 PM 34.6569 -82.6650 85° East 203 234 5,300 -850 Descending Atlanta Center
Sat 03:42:32 PM 34.6603 -82.5969 87° East 203 234 4,400 -650 Descending Atlanta Center
Sat 03:43:32 PM 34.6656 -82.5261 85° East 203 234 4,000 -400 Descending Atlanta Center
Sat 03:45:00 PM 34.7225 -82.4664 41° Northeast  Level FlightAware Approximate
Sat 03:52:00 PM 34.8333 -82.3500 North  Level FlightAware Approximate
Sat 03:53:00 PM 34.8479 -82.3500 North  Level Estimated
Sat 03:54:00 PM 34.8479 -82.3500 North  Level Estimated
Sat 03:55:00 PM 34.8479 -82.3500 North  Level Estimated
Sat 03:56:00 PM 34.8479 -82.3500 North  Level Estimated
Sat 03:57:00 PM 34.8479 -82.3500 North  Level Estimated

Login

Don't have an account? Register now (free) for customized features, flight alerts, and more!